Time;durP1;ratioP1;P1;durP2;ratioP2;P2;SDS_P1;SDS_P2;PMS_P1;PMS_P2;Temp;Humidity;BMP_temperature;BMP_pressure;BME280_temperature;BME280_humidity;BME280_pressure;Samples;Min_cycle;Max_cycle;Signal;HPM_P1;HPM_P2
2022/04/13 00:00:42;;;;;;;17.67;9.10;;;12.90;99.90;;;;;;5092043;28;20400;-61
2022/04/13 00:03:08;;;;;;;12.15;8.82;;;12.90;99.90;;;;;;5094105;28;20044;-61
2022/04/13 00:05:34;;;;;;;11.27;8.05;;;13.10;99.90;;;;;;5093256;28;20040;-61
2022/04/13 00:08:05;;;;;;;13.60;9.05;;;12.90;99.90;;;;;;5093844;28;20087;-61
2022/04/13 00:10:32;;;;;;;12.55;8.80;;;12.60;99.90;;;;;;5092476;28;20040;-61
2022/04/13 00:12:57;;;;;;;17.90;10.02;;;12.30;99.90;;;;;;5074820;28;20055;-61
2022/04/13 00:15:23;;;;;;;17.30;10.65;;;13.00;99.90;;;;;;5093003;28;20122;-61
2022/04/13 00:17:49;;;;;;;14.10;9.18;;;12.60;99.90;;;;;;5092335;28;20552;-61
2022/04/13 00:20:15;;;;;;;19.58;9.95;;;13.00;99.90;;;;;;5108812;28;20089;-61
2022/04/13 00:22:40;;;;;;;15.82;9.80;;;12.60;99.90;;;;;;5093574;28;20071;-61
2022/04/13 00:25:06;;;;;;;15.20;10.80;;;12.80;99.90;;;;;;5093303;28;20115;-61
2022/04/13 00:27:32;;;;;;;17.92;11.60;;;12.50;99.90;;;;;;5092945;28;20108;-61
2022/04/13 00:29:57;;;;;;;16.67;10.48;;;13.10;99.90;;;;;;5092387;28;20064;-61
2022/04/13 00:32:23;;;;;;;18.85;11.98;;;12.40;99.90;;;;;;5093828;28;20032;-62
2022/04/13 00:34:49;;;;;;;15.93;11.48;;;12.50;99.90;;;;;;5091183;28;20058;-61
2022/04/13 00:37:14;;;;;;;17.63;11.88;;;12.40;99.90;;;;;;5093299;28;20082;-61
2022/04/13 00:39:40;;;;;;;19.98;12.80;;;12.80;99.90;;;;;;5091814;28;20381;-61
2022/04/13 00:42:07;;;;;;;19.77;11.75;;;12.60;99.90;;;;;;5091103;28;20051;-61
2022/04/13 00:44:33;;;;;;;16.42;11.75;;;12.50;99.90;;;;;;5091880;28;20056;-61
2022/04/13 00:47:02;;;;;;;17.02;11.95;;;12.40;99.90;;;;;;5093241;28;20051;-61
2022/04/13 00:49:27;;;;;;;19.23;12.35;;;12.40;99.90;;;;;;5091554;28;20044;-61
2022/04/13 00:51:53;;;;;;;18.73;12.30;;;12.40;99.90;;;;;;5091467;28;20477;-61
2022/04/13 00:54:20;;;;;;;15.82;11.32;;;12.50;99.90;;;;;;5074790;28;20048;-61
2022/04/13 00:56:48;;;;;;;18.55;12.88;;;12.30;99.90;;;;;;5092368;28;20381;-61
2022/04/13 00:59:15;;;;;;;18.52;12.32;;;12.40;99.90;;;;;;5091724;28;20071;-61
2022/04/13 01:01:42;;;;;;;20.50;13.77;;;11.90;99.90;;;;;;5092903;28;20388;-61
2022/04/13 01:04:11;;;;;;;16.75;10.77;;;12.00;99.90;;;;;;5107529;28;20054;-61
2022/04/13 01:06:38;;;;;;;19.67;14.32;;;12.40;99.90;;;;;;5092724;28;20082;-61
2022/04/13 01:09:04;;;;;;;23.63;14.93;;;11.90;99.90;;;;;;5091921;28;20040;-61
2022/04/13 01:11:30;;;;;;;22.10;14.45;;;11.90;99.90;;;;;;5074892;28;20389;-61
2022/04/13 01:13:57;;;;;;;22.17;13.60;;;12.60;99.90;;;;;;5091472;28;20048;-61
2022/04/13 01:16:24;;;;;;;21.10;13.77;;;11.90;99.90;;;;;;5073913;28;20052;-61
2022/04/13 01:18:54;;;;;;;18.23;12.80;;;13.40;99.90;;;;;;5091539;28;20048;-61
2022/04/13 01:21:52;;;;;;;18.35;12.45;;;11.70;99.90;;;;;;5091531;28;20044;-61
2022/04/13 01:24:18;;;;;;;20.33;13.50;;;11.90;99.90;;;;;;5092150;28;20400;-61
2022/04/13 01:26:44;;;;;;;22.70;14.70;;;11.80;99.90;;;;;;5092566;28;20032;-61
2022/04/13 01:29:10;;;;;;;20.67;13.52;;;11.80;99.90;;;;;;5092465;28;20424;-61
2022/04/13 01:31:35;;;;;;;19.42;14.38;;;11.60;99.90;;;;;;5090426;28;20068;-61
2022/04/13 01:34:02;;;;;;;22.65;13.20;;;11.70;99.90;;;;;;5090769;28;20100;-61
2022/04/13 01:36:28;;;;;;;24.35;14.50;;;11.70;99.90;;;;;;5091355;28;20044;-61
2022/04/13 01:38:54;;;;;;;20.67;13.18;;;12.30;99.90;;;;;;5090059;28;20044;-61
2022/04/13 01:41:19;;;;;;;21.13;13.63;;;12.00;99.90;;;;;;5108082;28;20397;-61
2022/04/13 01:43:45;;;;;;;22.45;14.55;;;11.70;99.90;;;;;;5091003;28;20078;-61
2022/04/13 01:46:11;;;;;;;20.85;16.48;;;11.80;99.90;;;;;;5090093;28;20051;-61
2022/04/13 01:48:37;;;;;;;19.80;13.68;;;12.10;99.90;;;;;;5092094;28;20054;-61
2022/04/13 01:51:03;;;;;;;27.77;15.95;;;11.80;99.90;;;;;;5089923;28;20127;-61
2022/04/13 01:53:29;;;;;;;23.13;14.25;;;11.70;99.90;;;;;;5092260;28;20052;-61
2022/04/13 01:55:54;;;;;;;24.33;14.32;;;12.10;99.90;;;;;;5091120;28;20401;-61
2022/04/13 01:58:21;;;;;;;21.38;14.82;;;11.50;99.90;;;;;;5090179;28;20054;-61
2022/04/13 02:00:54;;;;;;;24.27;15.45;;;11.60;99.90;;;;;;5090943;28;20119;-61
2022/04/13 02:03:21;;;;;;;28.15;15.27;;;12.00;99.90;;;;;;5092573;28;20040;-61
2022/04/13 02:05:47;;;;;;;25.02;15.10;;;12.10;99.90;;;;;;5089799;28;20119;-61
2022/04/13 02:08:13;;;;;;;22.02;14.80;;;11.90;99.90;;;;;;5091011;28;20470;-62
2022/04/13 02:10:38;;;;;;;22.45;15.10;;;11.90;99.90;;;;;;5090616;28;20126;-61
2022/04/13 02:13:04;;;;;;;21.75;15.88;;;11.70;99.90;;;;;;5091001;28;20047;-61
2022/04/13 02:15:30;;;;;;;19.95;14.65;;;;;;;;;;5094143;28;20040;-61
2022/04/13 02:17:56;;;;;;;19.67;14.35;;;12.40;99.90;;;;;;5094889;28;20054;-61
2022/04/13 02:20:22;;;;;;;25.55;15.43;;;11.90;99.90;;;;;;5095477;28;20056;-61
2022/04/13 02:22:48;;;;;;;27.33;15.35;;;12.20;99.90;;;;;;5094714;28;20047;-61
2022/04/13 02:25:14;;;;;;;28.02;17.02;;;12.00;99.90;;;;;;5095786;28;20036;-62
2022/04/13 02:27:40;;;;;;;25.38;16.05;;;12.20;99.90;;;;;;5095054;28;20032;-61
2022/04/13 02:30:07;;;;;;;25.27;15.75;;;12.00;99.90;;;;;;5094349;28;20492;-61
2022/04/13 02:32:37;;;;;;;23.55;15.10;;;12.30;99.90;;;;;;5095928;28;20074;-61
2022/04/13 02:35:03;;;;;;;19.23;13.88;;;12.20;99.90;;;;;;5093645;28;20105;-61
2022/04/13 02:37:28;;;;;;;23.10;15.38;;;11.90;99.90;;;;;;5094702;28;20085;-61
2022/04/13 02:39:54;;;;;;;24.70;14.70;;;12.00;99.90;;;;;;5094132;28;20396;-61
2022/04/13 02:42:20;;;;;;;17.92;12.18;;;12.20;99.90;;;;;;5095030;28;20040;-61
2022/04/13 02:44:45;;;;;;;18.90;13.25;;;12.00;99.90;;;;;;5111571;28;20152;-61
2022/04/13 02:47:11;;;;;;;19.70;12.73;;;13.90;99.90;;;;;;5094144;28;20566;-61
2022/04/13 02:49:37;;;;;;;17.05;13.02;;;12.10;99.90;;;;;;5093728;28;20384;-61
2022/04/13 02:52:04;;;;;;;23.50;13.48;;;11.30;99.90;;;;;;5094111;28;20497;-61
2022/04/13 02:54:30;;;;;;;18.58;12.38;;;;;;;;;;5094333;28;20060;-61
2022/04/13 02:56:55;;;;;;;19.98;13.18;;;11.50;99.90;;;;;;5095247;28;20044;-61
2022/04/13 02:59:21;;;;;;;20.70;13.10;;;12.30;99.90;;;;;;5094147;28;20093;-61
2022/04/13 03:01:47;;;;;;;19.50;13.57;;;11.80;99.90;;;;;;5094450;28;20036;-61
2022/04/13 03:04:13;;;;;;;21.17;12.95;;;11.60;99.90;;;;;;5093834;28;20397;-61
2022/04/13 03:06:39;;;;;;;24.13;12.70;;;11.80;99.90;;;;;;5094098;28;20076;-61
2022/04/13 03:09:05;;;;;;;21.85;14.35;;;11.30;99.90;;;;;;5093135;28;20071;-61
2022/04/13 03:11:31;;;;;;;18.73;12.60;;;11.70;99.90;;;;;;5094203;28;20044;-61
2022/04/13 03:13:57;;;;;;;18.85;13.27;;;11.60;99.90;;;;;;5093881;28;20123;-61
2022/04/13 03:16:23;;;;;;;23.92;13.82;;;11.60;99.90;;;;;;5093214;28;20043;-61
2022/04/13 03:18:49;;;;;;;20.63;14.05;;;11.40;99.90;;;;;;5094850;28;20040;-61
2022/04/13 03:21:14;;;;;;;20.48;14.05;;;11.30;99.90;;;;;;5093744;28;20042;-61
2022/04/13 03:23:40;;;;;;;28.33;18.13;;;11.30;99.90;;;;;;5093983;28;20040;-61
2022/04/13 03:26:07;;;;;;;21.42;15.90;;;11.60;99.90;;;;;;5092747;28;20036;-61
2022/04/13 03:28:33;;;;;;;20.92;14.55;;;11.50;99.90;;;;;;5094685;28;20100;-61
2022/04/13 03:30:59;;;;;;;28.75;17.02;;;13.10;99.90;;;;;;5094036;28;20035;-61
2022/04/13 03:33:25;;;;;;;24.85;14.70;;;11.40;99.90;;;;;;5110536;28;20048;-61
2022/04/13 03:35:51;;;;;;;21.75;15.10;;;;;;;;;;5094391;28;20032;-61
2022/04/13 03:38:17;;;;;;;21.25;13.70;;;11.20;99.90;;;;;;5094059;28;20101;-63
2022/04/13 03:40:42;;;;;;;17.65;13.32;;;11.50;99.90;;;;;;5093160;28;20048;-63
2022/04/13 03:43:08;;;;;;;22.23;15.77;;;10.90;99.90;;;;;;5093370;28;20048;-63
2022/04/13 03:45:33;;;;;;;23.77;14.57;;;11.50;99.90;;;;;;5093736;28;20040;-63
2022/04/13 03:47:59;;;;;;;22.55;14.98;;;11.30;99.90;;;;;;5094181;28;20044;-63
2022/04/13 03:50:25;;;;;;;24.10;15.75;;;11.10;99.90;;;;;;5093555;28;20074;-63
2022/04/13 03:52:51;;;;;;;21.33;13.98;;;;;;;;;;5092803;28;20561;-63
2022/04/13 03:55:19;;;;;;;23.90;14.82;;;11.10;99.90;;;;;;5093261;28;20084;-63
2022/04/13 03:57:45;;;;;;;21.90;14.40;;;11.00;99.90;;;;;;5092286;28;20431;-63
2022/04/13 04:00:11;;;;;;;25.30;14.27;;;11.00;99.90;;;;;;5093124;28;20040;-63
2022/04/13 04:02:40;;;;;;;21.45;15.40;;;11.00;99.90;;;;;;5094084;28;20032;-63
2022/04/13 04:05:06;;;;;;;22.70;14.98;;;10.80;99.90;;;;;;5093177;28;20078;-63
2022/04/13 04:07:32;;;;;;;19.92;15.20;;;11.20;99.90;;;;;;5092837;28;20104;-63
2022/04/13 04:09:57;;;;;;;30.13;16.67;;;11.30;99.90;;;;;;5092689;28;20434;-63
2022/04/13 04:12:24;;;;;;;24.30;15.55;;;10.90;99.90;;;;;;5093162;28;20499;-63
2022/04/13 04:14:49;;;;;;;24.92;16.23;;;11.00;99.90;;;;;;5092515;28;20949;-63
2022/04/13 04:17:15;;;;;;;23.17;15.23;;;11.00;99.90;;;;;;5092456;28;20119;-63
2022/04/13 04:19:40;;;;;;;24.48;17.25;;;10.60;99.90;;;;;;5091916;28;20039;-63
2022/04/13 04:22:06;;;;;;;25.17;18.13;;;10.90;99.90;;;;;;5109346;28;20046;-63
2022/04/13 04:24:32;;;;;;;28.35;16.70;;;10.80;99.90;;;;;;5093502;28;20040;-63
2022/04/13 04:26:57;;;;;;;25.65;16.30;;;10.60;99.90;;;;;;5091422;28;20050;-63
2022/04/13 04:29:24;;;;;;;26.88;16.50;;;11.20;99.90;;;;;;5092472;28;20062;-64
2022/04/13 04:31:49;;;;;;;25.70;16.10;;;11.10;99.90;;;;;;5093572;28;20423;-63
2022/04/13 04:34:16;;;;;;;22.95;15.13;;;12.70;99.90;;;;;;5091473;28;20123;-63
2022/04/13 04:36:42;;;;;;;24.25;16.45;;;11.10;99.90;;;;;;5093040;28;20048;-63
2022/04/13 04:39:07;;;;;;;24.48;17.10;;;11.20;99.90;;;;;;5091551;28;20044;-63
2022/04/13 04:41:33;;;;;;;21.48;16.35;;;11.20;99.90;;;;;;5092425;28;20097;-63
2022/04/13 04:43:59;;;;;;;28.08;19.42;;;11.20;99.90;;;;;;5075103;28;20116;-63
2022/04/13 04:46:25;;;;;;;25.83;18.73;;;11.20;99.90;;;;;;5092340;28;20434;-63
2022/04/13 04:48:51;;;;;;;27.60;18.00;;;11.20;99.90;;;;;;5092094;28;20039;-63
2022/04/13 04:51:16;;;;;;;22.75;17.15;;;11.20;99.90;;;;;;5093548;28;20067;-63
2022/04/13 04:53:42;;;;;;;25.08;16.52;;;11.20;99.90;;;;;;5108563;28;20415;-63
2022/04/13 04:56:07;;;;;;;29.23;19.60;;;11.20;99.90;;;;;;5092532;28;20108;-63
2022/04/13 04:58:34;;;;;;;23.48;17.10;;;11.20;99.90;;;;;;5093082;28;20036;-63
2022/04/13 05:00:59;;;;;;;25.92;17.60;;;11.20;99.90;;;;;;5091080;28;20040;-63
2022/04/13 05:03:25;;;;;;;26.20;18.75;;;11.20;99.90;;;;;;5093113;28;20097;-63
2022/04/13 05:05:51;;;;;;;25.95;19.00;;;11.10;99.90;;;;;;5092567;28;20040;-63
2022/04/13 05:08:17;;;;;;;28.17;20.00;;;11.10;99.90;;;;;;5092218;28;20477;-63
2022/04/13 05:10:43;;;;;;;26.25;19.38;;;11.00;99.90;;;;;;5091316;28;20082;-63
2022/04/13 05:13:09;;;;;;;28.73;19.52;;;11.10;99.90;;;;;;5092704;28;20047;-64
2022/04/13 05:15:35;;;;;;;30.90;21.40;;;11.10;99.90;;;;;;5091886;28;20437;-63
2022/04/13 05:18:00;;;;;;;33.33;20.45;;;11.10;99.90;;;;;;5092674;28;20079;-63
2022/04/13 05:20:26;;;;;;;27.77;20.02;;;11.10;99.90;;;;;;5092813;28;20032;-63
2022/04/13 05:22:51;;;;;;;33.90;22.10;;;10.90;99.90;;;;;;5090682;28;20040;-63
2022/04/13 05:25:17;;;;;;;31.92;21.45;;;11.10;99.90;;;;;;5092929;28;20386;-63
2022/04/13 05:27:44;;;;;;;30.17;21.50;;;11.20;99.90;;;;;;5091397;28;20039;-63
2022/04/13 05:30:13;;;;;;;25.75;19.15;;;11.20;99.90;;;;;;5091659;28;20468;-64
2022/04/13 05:32:57;;;;;;;27.48;20.02;;;11.40;99.90;;;;;;5091200;28;20036;-63
2022/04/13 05:35:25;;;;;;;27.27;18.30;;;10.80;99.90;;;;;;5091321;28;20047;-63
2022/04/13 05:37:51;;;;;;;25.75;18.13;;;11.30;99.90;;;;;;5090085;28;20039;-63
2022/04/13 05:40:17;;;;;;;27.92;19.40;;;11.20;99.90;;;;;;5091387;28;20039;-63
2022/04/13 05:42:43;;;;;;;30.42;18.33;;;11.50;99.90;;;;;;5090849;28;20055;-63
2022/04/13 05:45:10;;;;;;;25.42;17.63;;;11.40;99.90;;;;;;5107037;28;20116;-63
2022/04/13 05:47:36;;;;;;;26.70;18.38;;;11.50;99.90;;;;;;5092275;28;20040;-62
2022/04/13 05:50:02;;;;;;;26.88;18.27;;;11.50;99.90;;;;;;5073814;28;20097;-62
2022/04/13 05:52:28;;;;;;;26.45;19.02;;;12.10;99.90;;;;;;5091662;28;20389;-63
2022/04/13 05:54:53;;;;;;;28.63;18.15;;;11.20;99.90;;;;;;5092061;28;20047;-62
2022/04/13 05:57:19;;;;;;;27.85;18.05;;;11.70;99.90;;;;;;5091749;28;20463;-62
2022/04/13 05:59:45;;;;;;;24.10;18.15;;;11.20;99.90;;;;;;5090668;28;20508;-62
2022/04/13 06:02:10;;;;;;;28.50;19.05;;;11.50;99.90;;;;;;5092084;28;20040;-62
2022/04/13 06:04:36;;;;;;;28.50;17.42;;;11.60;99.90;;;;;;5091195;28;20036;-62
2022/04/13 06:07:01;;;;;;;27.02;17.42;;;11.80;99.90;;;;;;5090975;28;20059;-62
2022/04/13 06:09:27;;;;;;;29.05;16.63;;;11.60;99.90;;;;;;5091228;28;20455;-62
2022/04/13 06:11:53;;;;;;;27.33;19.25;;;11.50;99.90;;;;;;5089527;28;20044;-62
2022/04/13 06:14:19;;;;;;;28.30;17.05;;;11.70;99.90;;;;;;5090950;28;20496;-62
2022/04/13 06:16:45;;;;;;;28.60;16.80;;;11.70;99.90;;;;;;5090789;28;20041;-62
2022/04/13 06:19:11;;;;;;;24.27;17.42;;;12.30;99.90;;;;;;5089807;28;20039;-62
2022/04/13 06:21:37;;;;;;;26.33;16.92;;;;;;;;;;5089080;28;20039;-62
2022/04/13 06:24:03;;;;;;;24.55;17.65;;;11.50;99.90;;;;;;5087992;28;20051;-62
2022/04/13 06:26:29;;;;;;;22.52;15.73;;;;;;;;;;5101797;28;20394;-62
2022/04/13 06:47:22;;;;;;;25.42;17.13;;;11.50;99.90;;;;;;5086455;28;20507;-64
2022/04/13 06:49:48;;;;;;;24.70;17.38;;;;;;;;;;5087918;28;20076;-63
2022/04/13 07:01:07;;;;;;;20.90;15.18;;;11.80;99.90;;;;;;5063486;28;20095;-63
2022/04/13 07:03:33;;;;;;;25.58;15.10;;;12.40;99.90;;;;;;5090858;28;20055;-63
2022/04/13 07:17:02;;;;;;;21.33;15.00;;;12.00;99.90;;;;;;5092037;28;20096;-63
2022/04/13 07:19:28;;;;;;;25.42;14.25;;;12.20;99.90;;;;;;5091347;28;20056;-63
2022/04/13 07:21:55;;;;;;;21.25;14.60;;;12.50;99.90;;;;;;5079676;28;20094;-63
2022/04/13 07:24:21;;;;;;;21.92;14.68;;;12.60;99.90;;;;;;5073778;28;20115;-63
2022/04/13 07:26:47;;;;;;;22.00;15.38;;;12.90;99.90;;;;;;5092090;28;20168;-63
2022/04/13 07:29:13;;;;;;;23.23;14.95;;;12.50;99.90;;;;;;5089060;28;20057;-63
2022/04/13 07:31:39;;;;;;;26.48;15.75;;;;;;;;;;5084487;28;20459;-62
2022/04/13 07:34:04;;;;;;;25.23;15.93;;;12.70;99.90;;;;;;5090779;28;20039;-63
2022/04/13 07:36:30;;;;;;;24.33;16.08;;;12.60;99.90;;;;;;5073552;28;20063;-62
2022/04/13 07:38:56;;;;;;;27.77;15.80;;;12.50;99.90;;;;;;5090231;28;20040;-63
2022/04/13 07:41:21;;;;;;;21.98;14.27;;;;;;;;;;5090527;28;20032;-63
2022/04/13 07:43:49;;;;;;;20.83;13.35;;;;;;;;;;5089875;28;20496;-63
2022/04/13 07:46:15;;;;;;;19.42;12.82;;;13.10;99.90;;;;;;5097855;28;20054;-63
2022/04/13 07:48:41;;;;;;;20.17;12.57;;;13.80;99.90;;;;;;5097079;28;20059;-63
2022/04/13 07:51:07;;;;;;;16.65;12.80;;;;;;;;;;5089172;28;20051;-63
2022/04/13 07:53:33;;;;;;;24.15;13.48;;;;;;;;;;5108382;28;20043;-63
2022/04/13 07:55:59;;;;;;;20.52;13.63;;;;;;;;;;5089105;28;20063;-63
2022/04/13 07:58:25;;;;;;;22.70;13.57;;;14.40;99.90;;;;;;5090685;28;20077;-63
2022/04/13 08:00:51;;;;;;;15.80;11.77;;;;;;;;;;5089730;28;20040;-63
2022/04/13 08:03:16;;;;;;;17.20;12.07;;;14.40;99.90;;;;;;5099384;28;20052;-63
2022/04/13 08:05:42;;;;;;;18.02;13.00;;;;;;;;;;5076514;28;20370;-63
2022/04/13 08:08:08;;;;;;;23.17;12.52;;;;;;;;;;5089253;28;20036;-63
2022/04/13 08:10:34;;;;;;;17.40;12.00;;;14.60;99.90;;;;;;5097776;28;20127;-63
2022/04/13 08:12:59;;;;;;;19.55;11.45;;;14.40;99.90;;;;;;5089573;28;20043;-63
2022/04/13 08:15:25;;;;;;;26.73;13.05;;;14.50;99.90;;;;;;5087982;28;20039;-63
2022/04/13 08:17:51;;;;;;;16.13;10.75;;;;;;;;;;5089178;28;20077;-63
2022/04/13 08:20:17;;;;;;;16.63;12.50;;;;;;;;;;5089204;28;20089;-63
2022/04/13 08:22:44;;;;;;;15.48;11.43;;;;;;;;;;5088108;28;20089;-63
2022/04/13 08:25:10;;;;;;;19.60;11.45;;;;;;;;;;5089298;28;20301;-64
2022/04/13 08:27:36;;;;;;;20.55;12.07;;;14.70;99.90;;;;;;5088447;28;20043;-64
2022/04/13 08:30:03;;;;;;;18.80;12.23;;;15.20;99.90;;;;;;5102808;28;20036;-64
2022/04/13 08:32:29;;;;;;;20.40;11.50;;;;;;;;;;5091373;28;20497;-64
2022/04/13 08:34:55;;;;;;;19.45;12.55;;;;;;;;;;5090389;28;20075;-64
2022/04/13 08:37:21;;;;;;;23.95;12.20;;;14.50;99.90;;;;;;5091004;28;20500;-64
2022/04/13 08:39:48;;;;;;;20.50;11.50;;;14.10;99.90;;;;;;5091342;28;20040;-64
2022/04/13 08:42:20;;;;;;;18.45;11.55;;;14.00;99.90;;;;;;5092578;28;20537;-64
2022/04/13 08:44:46;;;;;;;15.52;11.35;;;14.40;99.90;;;;;;5090456;28;20507;-64
2022/04/13 08:47:15;;;;;;;21.25;12.35;;;14.50;99.90;;;;;;5090216;28;20243;-64
2022/04/13 08:49:44;;;;;;;15.35;10.88;;;14.70;99.90;;;;;;5091619;28;20075;-64
2022/04/13 08:52:13;;;;;;;22.63;11.60;;;14.80;99.90;;;;;;5091581;28;20043;-64
2022/04/13 08:54:45;;;;;;;19.50;12.52;;;;;;;;;;5091835;28;20439;-63
2022/04/13 08:57:14;;;;;;;19.33;11.10;;;14.80;99.90;;;;;;5092297;28;20051;-64
2022/04/13 08:59:48;;;;;;;18.08;10.93;;;15.10;99.90;;;;;;5090752;28;20044;-64
2022/04/13 09:02:39;;;;;;;23.05;12.90;;;15.50;99.90;;;;;;5097320;28;20543;-63
2022/04/13 09:05:12;;;;;;;20.38;12.50;;;15.50;99.90;;;;;;5078281;28;20051;-63
2022/04/13 09:07:39;;;;;;;15.80;10.90;;;15.60;99.90;;;;;;5079226;28;20040;-63
2022/04/13 09:10:10;;;;;;;17.52;11.73;;;15.40;99.90;;;;;;5092102;28;20040;-63
2022/04/13 09:12:36;;;;;;;17.95;10.07;;;15.40;99.90;;;;;;5107859;28;20425;-63
2022/04/13 09:15:04;;;;;;;16.65;9.75;;;16.00;99.90;;;;;;5089997;28;20436;-63
2022/04/13 09:17:31;;;;;;;19.85;11.43;;;15.80;99.90;;;;;;5079998;28;20044;-63
2022/04/13 09:19:58;;;;;;;16.58;10.38;;;15.80;99.90;;;;;;5094924;28;20046;-63
2022/04/13 09:22:25;;;;;;;17.52;9.27;;;15.90;99.90;;;;;;5086780;28;20051;-63
2022/04/13 09:24:51;;;;;;;15.48;8.90;;;;;;;;;;5083977;28;20085;-63
2022/04/13 09:27:18;;;;;;;18.55;10.18;;;16.60;99.90;;;;;;5105038;28;20055;-64
2022/04/13 09:29:44;;;;;;;13.88;9.40;;;15.60;99.90;;;;;;5070184;28;20032;-64
2022/04/13 09:32:10;;;;;;;17.65;10.32;;;17.60;99.90;;;;;;5087257;28;20520;-64
2022/04/13 09:34:36;;;;;;;16.70;7.65;;;;;;;;;;5102937;28;20035;-63
2022/04/13 09:37:02;;;;;;;13.50;7.93;;;;;;;;;;5090448;28;20496;-63
2022/04/13 09:39:28;;;;;;;16.52;9.13;;;;;;;;;;5099830;28;20059;-63
2022/04/13 09:41:54;;;;;;;17.13;8.82;;;;;;;;;;5095528;28;20061;-63
2022/04/13 09:44:21;;;;;;;15.13;7.80;;;;;;;;;;5099481;28;20438;-63
2022/04/13 09:46:47;;;;;;;16.27;8.05;;;;;;;;;;5091721;28;20481;-63
2022/04/13 09:49:14;;;;;;;11.82;7.18;;;;;;;;;;5105618;28;20054;-63
2022/04/13 09:51:41;;;;;;;13.88;8.15;;;;;;;;;;5090013;28;20123;-63
2022/04/13 09:54:08;;;;;;;15.68;8.65;;;16.50;99.90;;;;;;5092228;28;20543;-63
2022/04/13 09:56:35;;;;;;;17.92;8.95;;;16.50;99.90;;;;;;5090597;28;20040;-63
2022/04/13 09:59:00;;;;;;;17.38;8.95;;;16.80;99.90;;;;;;5091340;28;20036;-62
2022/04/13 10:01:26;;;;;;;13.48;8.75;;;16.50;99.90;;;;;;5098853;28;20041;-63
2022/04/13 10:03:55;;;;;;;14.00;7.85;;;16.60;99.90;;;;;;5068063;28;20054;-63
2022/04/13 10:06:28;;;;;;;16.77;9.18;;;16.50;99.90;;;;;;5067889;28;20124;-64
2022/04/13 10:09:01;;;;;;;13.77;7.63;;;16.60;99.90;;;;;;5080428;28;20480;-63
2022/04/13 10:11:27;;;;;;;12.25;8.13;;;16.50;99.90;;;;;;5089166;28;20044;-63
2022/04/13 10:13:53;;;;;;;19.98;8.80;;;;;;;;;;5086806;28;20497;-63
2022/04/13 10:16:19;;;;;;;13.50;9.02;;;;;;;;;;5086864;28;20300;-63
2022/04/13 10:18:58;;;;;;;14.25;9.25;;;16.70;99.90;;;;;;5086765;28;20044;-63
2022/04/13 10:21:36;;;;;;;11.80;9.43;;;16.70;99.90;;;;;;5088904;28;20105;-63
2022/04/13 10:24:03;;;;;;;18.15;9.43;;;17.10;99.90;;;;;;5092100;28;20139;-62
2022/04/13 10:26:29;;;;;;;16.80;10.10;;;17.00;99.90;;;;;;5097782;28;20047;-63
2022/04/13 10:28:55;;;;;;;13.32;7.78;;;16.90;99.90;;;;;;5089682;28;20036;-63
2022/04/13 10:31:20;;;;;;;16.48;7.57;;;17.00;99.90;;;;;;5089524;28;20392;-63
2022/04/13 10:33:50;;;;;;;18.27;9.25;;;16.70;99.90;;;;;;5089242;28;20032;-63
2022/04/13 10:36:17;;;;;;;16.42;9.27;;;18.30;99.90;;;;;;5092789;28;20429;-62
2022/04/13 10:38:46;;;;;;;14.82;8.75;;;16.70;99.90;;;;;;5093621;28;20089;-63
2022/04/13 10:41:21;;;;;;;14.30;7.82;;;16.80;99.90;;;;;;5095696;28;20093;-63
2022/04/13 10:43:52;;;;;;;15.63;9.20;;;17.00;99.90;;;;;;5094609;28;20047;-63
2022/04/13 10:46:20;;;;;;;12.20;7.95;;;;;;;;;;5095197;28;20109;-63
2022/04/13 10:48:46;;;;;;;16.52;8.48;;;;;;;;;;5095506;28;20396;-63
2022/04/13 10:51:14;;;;;;;15.02;8.35;;;;;;;;;;5081185;28;20054;-63
2022/04/13 10:53:53;;;;;;;15.98;8.27;;;;;;;;;;5055821;28;20090;-63
2022/04/13 10:56:20;;;;;;;12.40;7.22;;;;;;;;;;5073537;28;20040;-63
2022/04/13 10:58:49;;;;;;;13.60;7.72;;;;;;;;;;5083427;28;20040;-64
2022/04/13 11:01:28;;;;;;;13.70;7.32;;;;;;;;;;5092250;28;20060;-64
2022/04/13 11:03:54;;;;;;;9.30;5.50;;;;;;;;;;5093630;28;20095;-63
2022/04/13 11:06:20;;;;;;;13.32;6.40;;;;;;;;;;5095490;28;20409;-64
2022/04/13 11:08:47;;;;;;;15.68;6.38;;;;;;;;;;5092088;28;20051;-63
2022/04/13 11:11:20;;;;;;;13.63;6.97;;;;;;;;;;5093740;28;20043;-63
2022/04/13 11:13:48;;;;;;;14.95;6.38;;;;;;;;;;5094323;28;20417;-63
2022/04/13 11:16:18;;;;;;;14.07;6.45;;;;;;;;;;5076273;28;20040;-63
2022/04/13 11:19:03;;;;;;;12.00;6.40;;;;;;;;;;5093832;28;20036;-64
2022/04/13 11:21:29;;;;;;;13.90;7.38;;;;;;;;;;5095034;28;20054;-64
2022/04/13 11:23:55;;;;;;;14.25;6.93;;;16.80;99.90;;;;;;5093685;28;20044;-64
2022/04/13 11:26:47;;;;;;;11.63;6.40;;;16.40;99.90;;;;;;5093058;28;20039;-64
2022/04/13 11:29:16;;;;;;;13.90;6.70;;;;;;;;;;5092350;28;20055;-65
2022/04/13 11:32:04;;;;;;;13.60;6.57;;;;;;;;;;5093233;28;20043;-64
2022/04/13 11:34:30;;;;;;;13.63;6.50;;;;;;;;;;5091522;28;20392;-65
2022/04/13 11:37:00;;;;;;;14.32;6.93;;;16.60;99.90;;;;;;5093536;28;20044;-65
2022/04/13 11:39:46;;;;;;;15.40;6.65;;;16.20;99.90;;;;;;5093228;28;20044;-64
2022/04/13 11:42:27;;;;;;;13.02;6.15;;;17.70;99.90;;;;;;5092836;28;20091;-64
2022/04/13 11:45:00;;;;;;;12.02;6.20;;;15.50;99.90;;;;;;5092821;28;20123;-64
2022/04/13 11:47:40;;;;;;;13.20;6.00;;;15.90;99.90;;;;;;5092919;28;20040;-64
2022/04/13 11:50:15;;;;;;;17.55;5.97;;;15.40;99.90;;;;;;5093558;28;20115;-64
2022/04/13 11:52:42;;;;;;;;;;;15.70;99.90;;;;;;5093649;28;20123;-63
2022/04/13 11:55:24;;;;;;;15.63;8.10;;;15.70;99.90;;;;;;5094356;28;19959;-63
2022/04/13 11:57:57;;;;;;;16.85;8.13;;;15.40;99.90;;;;;;5092298;28;20048;-63
2022/04/13 12:00:59;;;;;;;14.05;6.80;;;15.30;99.90;;;;;;5094432;28;20040;-64
2022/04/13 12:03:25;;;;;;;14.60;7.50;;;15.20;99.90;;;;;;5092125;28;20102;-63
2022/04/13 12:05:57;;;;;;;19.25;8.45;;;14.90;99.90;;;;;;5093804;28;20521;-63
2022/04/13 12:08:30;;;;;;;17.50;7.35;;;15.20;99.90;;;;;;5093091;28;20528;-63
2022/04/13 12:10:57;;;;;;;14.32;8.48;;;15.90;99.90;;;;;;5092172;28;20102;-63
2022/04/13 12:13:23;;;;;;;17.13;9.07;;;14.70;99.90;;;;;;5092802;28;20446;-63
2022/04/13 12:15:51;;;;;;;15.70;8.45;;;15.10;99.90;;;;;;5092721;28;20044;-64
2022/04/13 12:18:18;;;;;;;14.07;8.55;;;15.10;99.90;;;;;;5092018;28;20118;-63
2022/04/13 12:20:44;;;;;;;141.18;91.72;;;15.20;99.90;;;;;;5093661;28;20461;-63
2022/04/13 12:23:26;;;;;;;22.38;12.68;;;15.10;99.90;;;;;;5092709;28;20151;-64
2022/04/13 12:25:54;;;;;;;14.00;7.90;;;;;;;;;;5092406;28;20032;-63
2022/04/13 12:28:22;;;;;;;16.67;8.52;;;;;;;;;;5080324;28;20028;-63
2022/04/13 12:31:01;;;;;;;14.75;8.25;;;15.10;99.90;;;;;;5104907;28;20075;-63
2022/04/13 12:33:28;;;;;;;18.02;9.50;;;15.20;99.90;;;;;;5097128;28;20085;-63
2022/04/13 12:35:59;;;;;;;17.05;8.20;;;14.90;99.90;;;;;;5091408;28;20135;-62
2022/04/13 12:38:25;;;;;;;17.33;8.80;;;15.20;99.90;;;;;;5086643;28;20119;-63
2022/04/13 12:41:03;;;;;;;15.70;8.55;;;15.00;99.90;;;;;;5087232;28;20132;-63
2022/04/13 12:43:29;;;;;;;12.98;7.65;;;15.20;99.90;;;;;;5090539;28;20047;-62
2022/04/13 12:45:56;;;;;;;15.40;7.85;;;15.40;99.90;;;;;;5082052;28;20543;-63
2022/04/13 12:48:28;;;;;;;18.95;8.80;;;15.30;99.90;;;;;;5096761;28;20039;-63
2022/04/13 12:51:01;;;;;;;14.73;8.98;;;15.30;99.90;;;;;;5089823;28;20412;-62
2022/04/13 12:53:27;;;;;;;15.45;8.55;;;15.50;99.90;;;;;;5071409;28;20055;-63
2022/04/13 12:55:56;;;;;;;12.15;7.95;;;15.60;99.90;;;;;;5088693;28;20121;-63
2022/04/13 12:58:23;;;;;;;19.58;9.60;;;15.80;99.90;;;;;;5088493;28;20527;-63
2022/04/13 13:00:48;;;;;;;15.70;9.30;;;15.80;99.90;;;;;;5089787;28;20047;-63
2022/04/13 13:03:16;;;;;;;18.63;8.50;;;16.20;99.90;;;;;;5089800;28;20412;-63
2022/04/13 13:05:42;;;;;;;14.57;9.55;;;16.30;99.90;;;;;;5105977;28;20462;-62
2022/04/13 13:08:08;;;;;;;14.00;8.48;;;16.70;99.90;;;;;;5087231;28;20036;-63
2022/04/13 13:10:34;;;;;;;14.70;7.78;;;16.20;99.90;;;;;;5090778;28;20400;-63
2022/04/13 13:13:17;;;;;;;14.90;8.15;;;17.40;99.90;;;;;;5090166;28;20389;-63
2022/04/13 13:15:43;;;;;;;18.23;8.82;;;17.00;99.90;;;;;;5088661;28;20075;-63
2022/04/13 13:18:09;;;;;;;17.27;9.20;;;17.30;99.90;;;;;;5089657;28;20032;-63
2022/04/13 13:20:55;;;;;;;14.48;9.20;;;16.80;99.90;;;;;;5071061;28;20044;-63
2022/04/13 13:23:25;;;;;;;;;;;16.80;99.90;;;;;;5089281;28;20051;-63
2022/04/13 13:25:50;;;;;;;15.98;8.05;;;16.50;99.90;;;;;;5089475;28;19920;-63
2022/04/13 13:28:16;;;;;;;15.38;7.95;;;16.70;99.90;;;;;;5089112;28;20036;-62